Home > Products > Valid Products > TAF

000
FTPA31 PHFO 301100
TAFHNL
TAF
PHNL 301120Z 3012/3118 33005KT P6SM FEW030 SCT050
     FM302000 05012KT P6SM VCSH FEW025 BKN045
     FM310500 04008KT P6SM VCSH SCT025 BKN040=



000
FTPA31 PHFO 301100
TAFHNL
TAF
PHNL 301120Z 3012/3118 33005KT P6SM FEW030 SCT050
     FM302000 05012KT P6SM VCSH FEW025 BKN045
     FM310500 04008KT P6SM VCSH SCT025 BKN040=



000
FTPA31 PHFO 301100
TAFHNL
TAF
PHNL 301120Z 3012/3118 33005KT P6SM FEW030 SCT050
     FM302000 05012KT P6SM VCSH FEW025 BKN045
     FM310500 04008KT P6SM VCSH SCT025 BKN040=



000
FTPA31 PHFO 301100
TAFHNL
TAF
PHNL 301120Z 3012/3118 33005KT P6SM FEW030 SCT050
     FM302000 05012KT P6SM VCSH FEW025 BKN045
     FM310500 04008KT P6SM VCSH SCT025 BKN040=



000
FTPA31 PHFO 300800 AAA
TAFHNL
TAF AMD
PHNL 300848Z 3009/3112 33005KT P6SM FEW028 SCT050
     FM302000 05012KT P6SM VCSH FEW025 BKN040
     FM310500 04008KT P6SM VCSH SCT025 BKN040=



000
FTPA31 PHFO 300800 AAA
TAFHNL
TAF AMD
PHNL 300848Z 3009/3112 33005KT P6SM FEW028 SCT050
     FM302000 05012KT P6SM VCSH FEW025 BKN040
     FM310500 04008KT P6SM VCSH SCT025 BKN040=



000
FTPA31 PHFO 300800 AAA
TAFHNL
TAF AMD
PHNL 300848Z 3009/3112 33005KT P6SM FEW028 SCT050
     FM302000 05012KT P6SM VCSH FEW025 BKN040
     FM310500 04008KT P6SM VCSH SCT025 BKN040=



000
FTPA31 PHFO 300500
TAFHNL
TAF
PHNL 300532Z 3006/3112 03006KT P6SM FEW028 SCT050
     FM300900 34005KT P6SM FEW028 SCT050
     FM302000 05012KT P6SM VCSH FEW025 BKN040
     FM310500 04008KT P6SM VCSH SCT025 BKN040=



000
FTPA31 PHFO 300500
TAFHNL
TAF
PHNL 300532Z 3006/3112 03006KT P6SM FEW028 SCT050
     FM300900 34005KT P6SM FEW028 SCT050
     FM302000 05012KT P6SM VCSH FEW025 BKN040
     FM310500 04008KT P6SM VCSH SCT025 BKN040=



000
FTPA31 PHFO 300200 AAA
TAFHNL
TAF AMD
PHNL 300255Z 3003/3106 03008KT P6SM FEW030 SCT050
     FM300700 35006KT P6SM FEW030 SCT050
     FM302000 05012G16KT P6SM VCSH SCT025 BKN045
     FM310500 05010KT P6SM SCT025 BKN045=



000
FTPA31 PHFO 300200 AAA
TAFHNL
TAF AMD
PHNL 300255Z 3003/3106 03008KT P6SM FEW030 SCT050
     FM300700 35006KT P6SM FEW030 SCT050
     FM302000 05012G16KT P6SM VCSH SCT025 BKN045
     FM310500 05010KT P6SM SCT025 BKN045=



000
FTPA31 PHFO 292300
TAFHNL
TAF
PHNL 292331Z 3000/3106 20008KT P6SM VCSH SCT030 BKN045
     FM300300 06010KT P6SM FEW030 SCT050
     FM300700 35006KT P6SM FEW030 SCT050
     FM302000 05012G16KT P6SM VCSH SCT025 BKN045
     FM310500 05010KT P6SM SCT025 BKN045=



000
FTPA31 PHFO 292100 AAA
TAFHNL
TAF AMD
PHNL 292101Z 2921/3024 16008KT P6SM FEW030 SCT050
     FM300200 04010KT P6SM FEW030 SCT050
     FM300700 35006KT P6SM FEW030 SCT050
     FM302000 05012G16KT P6SM VCSH SCT035 BKN045=



000
FTPA31 PHFO 291700
TAFHNL
TAF
PHNL 291736Z 2918/3024 33006KT P6SM FEW030
     FM292000 15008KT P6SM FEW030 SCT050
     FM300200 04010KT P6SM FEW030 SCT050
     FM300700 35006KT P6SM FEW030 SCT050
     FM302000 05012G16KT P6SM VCSH SCT035 BKN045=



000
FTPA31 PHFO 291700
TAFHNL
TAF
PHNL 291736Z 2918/3024 33006KT P6SM FEW030
     FM292000 15008KT P6SM FEW030 SCT050
     FM300200 04010KT P6SM FEW030 SCT050
     FM300700 35006KT P6SM FEW030 SCT050
     FM302000 05012G16KT P6SM VCSH SCT035 BKN045=



000
FTPA31 PHFO 291500 AAA
TAFHNL
TAF AMD
PHNL 291504Z 2915/3018 33006KT P6SM SCT030
     FM292000 10008KT P6SM SCT050
     FM300100 06010KT P6SM SCT030 BKN050
     FM300700 06008KT P6SM SCT050=



000
FTPA31 PHFO 291500 AAA
TAFHNL
TAF AMD
PHNL 291504Z 2915/3018 33006KT P6SM SCT030
     FM292000 10008KT P6SM SCT050
     FM300100 06010KT P6SM SCT030 BKN050
     FM300700 06008KT P6SM SCT050=



000
FTPA31 PHFO 291500 AAA
TAFHNL
TAF AMD
PHNL 291504Z 2915/3018 33006KT P6SM SCT030
     FM292000 10008KT P6SM SCT050
     FM300100 06010KT P6SM SCT030 BKN050
     FM300700 06008KT P6SM SCT050=



000
FTPA31 PHFO 291500 AAA
TAFHNL
TAF AMD
PHNL 291504Z 2915/3018 33006KT P6SM SCT030
     FM292000 10008KT P6SM SCT050
     FM300100 06010KT P6SM SCT030 BKN050
     FM300700 06008KT P6SM SCT050=



000
FTPA31 PHFO 291100
TAFHNL
TAF
PHNL 291120Z 2912/3018 33006KT P6SM SCT030
     FM292000 10008KT P6SM SCT050
     FM300100 06010KT P6SM SCT030 BKN050
     FM300700 06008KT P6SM SCT050=



000
FTPA31 PHFO 291100
TAFHNL
TAF
PHNL 291120Z 2912/3018 33006KT P6SM SCT030
     FM292000 10008KT P6SM SCT050
     FM300100 06010KT P6SM SCT030 BKN050
     FM300700 06008KT P6SM SCT050=



000
FTPA31 PHFO 291100
TAFHNL
TAF
PHNL 291120Z 2912/3018 33006KT P6SM SCT030
     FM292000 10008KT P6SM SCT050
     FM300100 06010KT P6SM SCT030 BKN050
     FM300700 06008KT P6SM SCT050=



000
FTPA31 PHFO 291100
TAFHNL
TAF
PHNL 291120Z 2912/3018 33006KT P6SM SCT030
     FM292000 10008KT P6SM SCT050
     FM300100 06010KT P6SM SCT030 BKN050
     FM300700 06008KT P6SM SCT050=



000
FTPA31 PHFO 290900 AAA
TAFHNL
TAF AMD
PHNL 290905Z 2909/3012 04006KT P6SM SCT030 BKN050
     FM292000 10008KT P6SM SCT050
     FM300200 05010KT P6SM SCT030 BKN050=



000
FTPA31 PHFO 290900 AAA
TAFHNL
TAF AMD
PHNL 290905Z 2909/3012 04006KT P6SM SCT030 BKN050
     FM292000 10008KT P6SM SCT050
     FM300200 05010KT P6SM SCT030 BKN050=



000
FTPA31 PHFO 290500
TAFHNL
TAF
PHNL 290532Z 2906/3012 04006KT P6SM SCT030 BKN050
     FM292000 10008KT P6SM SCT050
     FM300200 05010KT P6SM SCT030 BKN050=



000
FTPA31 PHFO 290500
TAFHNL
TAF
PHNL 290532Z 2906/3012 04006KT P6SM SCT030 BKN050
     FM292000 10008KT P6SM SCT050
     FM300200 05010KT P6SM SCT030 BKN050=



000
FTPA31 PHFO 290500
TAFHNL
TAF
PHNL 290532Z 2906/3012 04006KT P6SM SCT030 BKN050
     FM292000 10008KT P6SM SCT050
     FM300200 05010KT P6SM SCT030 BKN050=



000
FTPA31 PHFO 290200 AAB
TAFHNL
TAF AMD
PHNL 290243Z 2903/3006 34008KT P6SM VCSH SCT030 BKN040
     FM290500 36005KT P6SM SCT030 BKN050
     FM292000 10008KT P6SM FEW030 SCT050
     FM300500 36005KT P6SM SCT030 BKN050=



000
FTPA31 PHFO 290200 AAB
TAFHNL
TAF AMD
PHNL 290243Z 2903/3006 34008KT P6SM VCSH SCT030 BKN040
     FM290500 36005KT P6SM SCT030 BKN050
     FM292000 10008KT P6SM FEW030 SCT050
     FM300500 36005KT P6SM SCT030 BKN050=



000
FTPA31 PHFO 290200 AAB
TAFHNL
TAF AMD
PHNL 290243Z 2903/3006 34008KT P6SM VCSH SCT030 BKN040
     FM290500 36005KT P6SM SCT030 BKN050
     FM292000 10008KT P6SM FEW030 SCT050
     FM300500 36005KT P6SM SCT030 BKN050=



000
FTPA31 PHFO 290000 AAA
TAFHNL
TAF AMD
PHNL 290039Z 2901/3006 04008KT P6SM VCSH SCT030 BKN050
      TEMPO 2901/2903 3SM SHRA BR BKN025
     FM290500 36005KT P6SM SCT030 BKN050
     FM292000 10008KT P6SM FEW030 SCT050
     FM300500 36005KT P6SM SCT030 BKN050=



000
FTPA31 PHFO 290000 AAA
TAFHNL
TAF AMD
PHNL 290039Z 2901/3006 04008KT P6SM VCSH SCT030 BKN050
      TEMPO 2901/2903 3SM SHRA BR BKN025
     FM290500 36005KT P6SM SCT030 BKN050
     FM292000 10008KT P6SM FEW030 SCT050
     FM300500 36005KT P6SM SCT030 BKN050=



000
FTPA31 PHFO 282300
TAFHNL
TAF
PHNL 282339Z 2900/3006 04008KT P6SM VCSH SCT030 BKN050
     FM290500 36005KT P6SM SCT030 BKN050
     FM292000 10008KT P6SM FEW030 SCT050
     FM300500 36005KT P6SM SCT030 BKN050=



000
FTPA31 PHFO 282300
TAFHNL
TAF
PHNL 282339Z 2900/3006 04008KT P6SM VCSH SCT030 BKN050
     FM290500 36005KT P6SM SCT030 BKN050
     FM292000 10008KT P6SM FEW030 SCT050
     FM300500 36005KT P6SM SCT030 BKN050=



000
FTPA31 PHFO 282100 AAA
TAFHNL
TAF AMD
PHNL 282108Z 2821/2924 18008KT P6SM FEW030 SCT040 BKN050
     FM290000 23008KT P6SM VCSH SCT030 BKN050
     FM290500 36005KT P6SM SCT030 BKN050
     FM292000 18008KT P6SM FEW030 SCT050=



000
FTPA31 PHFO 282100 AAA
TAFHNL
TAF AMD
PHNL 282108Z 2821/2924 18008KT P6SM FEW030 SCT040 BKN050
     FM290000 23008KT P6SM VCSH SCT030 BKN050
     FM290500 36005KT P6SM SCT030 BKN050
     FM292000 18008KT P6SM FEW030 SCT050=



000
FTPA31 PHFO 281700
TAFHNL
TAF
PHNL 281728Z 2818/2924 34005KT P6SM FEW030 SCT040
     FM282000 19008KT P6SM FEW030 SCT040
     FM290000 23008KT P6SM VCSH SCT030 BKN050
     FM290500 36005KT P6SM SCT030 BKN050
     FM292000 18008KT P6SM FEW030 SCT050=



000
FTPA31 PHFO 281700
TAFHNL
TAF
PHNL 281728Z 2818/2924 34005KT P6SM FEW030 SCT040
     FM282000 19008KT P6SM FEW030 SCT040
     FM290000 23008KT P6SM VCSH SCT030 BKN050
     FM290500 36005KT P6SM SCT030 BKN050
     FM292000 18008KT P6SM FEW030 SCT050=



000
FTPA31 PHFO 281700
TAFHNL
TAF
PHNL 281728Z 2818/2924 34005KT P6SM FEW030 SCT040
     FM282000 19008KT P6SM FEW030 SCT040
     FM290000 23008KT P6SM VCSH SCT030 BKN050
     FM290500 36005KT P6SM SCT030 BKN050
     FM292000 18008KT P6SM FEW030 SCT050=



000
FTPA31 PHFO 281500 AAA
TAFHNL
TAF AMD
PHNL 281504Z 2815/2918 02008KT P6SM SCT025 BKN050
     FM282000 19008KT P6SM SCT025 BKN050
     FM290000 23008KT P6SM VCSH SCT025 BKN050
     FM290400 06006KT P6SM SCT030 BKN050=



000
FTPA31 PHFO 281500 AAA
TAFHNL
TAF AMD
PHNL 281504Z 2815/2918 02008KT P6SM SCT025 BKN050
     FM282000 19008KT P6SM SCT025 BKN050
     FM290000 23008KT P6SM VCSH SCT025 BKN050
     FM290400 06006KT P6SM SCT030 BKN050=



000
FTPA31 PHFO 281100
TAFHNL
TAF
PHNL 281120Z 2812/2918 02008KT P6SM SCT025 BKN050
     FM282000 19008KT P6SM SCT025 BKN050
     FM290000 23008KT P6SM VCSH SCT025 BKN050
     FM290400 06006KT P6SM SCT030 BKN050=



000
FTPA31 PHFO 281100
TAFHNL
TAF
PHNL 281120Z 2812/2918 02008KT P6SM SCT025 BKN050
     FM282000 19008KT P6SM SCT025 BKN050
     FM290000 23008KT P6SM VCSH SCT025 BKN050
     FM290400 06006KT P6SM SCT030 BKN050=



000
FTPA31 PHFO 281100
TAFHNL
TAF
PHNL 281120Z 2812/2918 02008KT P6SM SCT025 BKN050
     FM282000 19008KT P6SM SCT025 BKN050
     FM290000 23008KT P6SM VCSH SCT025 BKN050
     FM290400 06006KT P6SM SCT030 BKN050=



000
FTPA31 PHFO 281100
TAFHNL
TAF
PHNL 281120Z 2812/2918 02008KT P6SM SCT025 BKN050
     FM282000 19008KT P6SM SCT025 BKN050
     FM290000 23008KT P6SM VCSH SCT025 BKN050
     FM290400 06006KT P6SM SCT030 BKN050=



000
FTPA31 PHFO 280900 AAA
TAFHNL
TAF AMD
PHNL 280903Z 2809/2912 03008KT P6SM SCT025 BKN050
     FM281100 34006KT P6SM SCT025
     FM282000 19008KT P6SM SCT025 BKN050
     FM290000 23008KT P6SM VCSH SCT025 BKN050
     FM290400 06006KT P6SM SCT030 BKN050=



000
FTPA31 PHFO 280900 AAA
TAFHNL
TAF AMD
PHNL 280903Z 2809/2912 03008KT P6SM SCT025 BKN050
     FM281100 34006KT P6SM SCT025
     FM282000 19008KT P6SM SCT025 BKN050
     FM290000 23008KT P6SM VCSH SCT025 BKN050
     FM290400 06006KT P6SM SCT030 BKN050=



000
FTPA31 PHFO 280500
TAFHNL
TAF
PHNL 280522Z 2806/2912 23008KT P6SM SCT025 BKN050
     FM281100 34006KT P6SM SCT025
     FM282000 19008KT P6SM SCT025 BKN050
     FM290000 23008KT P6SM VCSH SCT025 BKN050
     FM290400 06006KT P6SM SCT030 BKN050=



000
FTPA31 PHFO 280500
TAFHNL
TAF
PHNL 280522Z 2806/2912 23008KT P6SM SCT025 BKN050
     FM281100 34006KT P6SM SCT025
     FM282000 19008KT P6SM SCT025 BKN050
     FM290000 23008KT P6SM VCSH SCT025 BKN050
     FM290400 06006KT P6SM SCT030 BKN050=



000
FTPA31 PHFO 280500
TAFHNL
TAF
PHNL 280522Z 2806/2912 23008KT P6SM SCT025 BKN050
     FM281100 34006KT P6SM SCT025
     FM282000 19008KT P6SM SCT025 BKN050
     FM290000 23008KT P6SM VCSH SCT025 BKN050
     FM290400 06006KT P6SM SCT030 BKN050=



000
FTPA31 PHFO 280300 AAA
TAFHNL
TAF AMD
PHNL 280310Z 2803/2906 23008KT P6SM FEW030 BKN040
     FM280500 03007KT P6SM FEW030 BKN050
     FM281000 34005KT P6SM FEW025 SCT050
     FM282000 14008KT P6SM FEW025 SCT050
     FM290000 03008KT P6SM VCSH FEW025 BKN050=



000
FTPA31 PHFO 280300 AAA
TAFHNL
TAF AMD
PHNL 280310Z 2803/2906 23008KT P6SM FEW030 BKN040
     FM280500 03007KT P6SM FEW030 BKN050
     FM281000 34005KT P6SM FEW025 SCT050
     FM282000 14008KT P6SM FEW025 SCT050
     FM290000 03008KT P6SM VCSH FEW025 BKN050=



000
FTPA31 PHFO 280300 AAA
TAFHNL
TAF AMD
PHNL 280310Z 2803/2906 23008KT P6SM FEW030 BKN040
     FM280500 03007KT P6SM FEW030 BKN050
     FM281000 34005KT P6SM FEW025 SCT050
     FM282000 14008KT P6SM FEW025 SCT050
     FM290000 03008KT P6SM VCSH FEW025 BKN050=



000
FTPA31 PHFO 280300 AAA
TAFHNL
TAF AMD
PHNL 280310Z 2803/2906 23008KT P6SM FEW030 BKN040
     FM280500 03007KT P6SM FEW030 BKN050
     FM281000 34005KT P6SM FEW025 SCT050
     FM282000 14008KT P6SM FEW025 SCT050
     FM290000 03008KT P6SM VCSH FEW025 BKN050=



000
FTPA31 PHFO 272300
TAFHNL
TAF
PHNL 272339Z 2800/2906 21008KT P6SM VCSH FEW025 BKN040
     FM280300 03008KT P6SM VCSH FEW025 BKN040
     FM281000 34005KT P6SM FEW025 BKN050
     FM282000 14008KT P6SM FEW025 SCT050
     FM290000 03008KT P6SM VCSH FEW025 BKN050=



000
FTPA31 PHFO 272100 AAA
TAFHNL
TAF AMD
PHNL 272105Z 2721/2824 19009KT P6SM FEW025 SCT050
     FM280000 03008KT P6SM VCSH FEW025 BKN050
     FM281000 34005KT P6SM FEW025 BKN050
     FM282000 14008KT P6SM FEW025 BKN050=



000
FTPA31 PHFO 272100 AAA
TAFHNL
TAF AMD
PHNL 272105Z 2721/2824 19009KT P6SM FEW025 SCT050
     FM280000 03008KT P6SM VCSH FEW025 BKN050
     FM281000 34005KT P6SM FEW025 BKN050
     FM282000 14008KT P6SM FEW025 BKN050=



000
FTPA31 PHFO 271700
TAFHNL
TAF
PHNL 271730Z 2718/2824 35004KT P6SM FEW025 SCT050
     FM272000 13008KT P6SM FEW025 BKN050
     FM280000 03008KT P6SM FEW025 BKN050
     FM281000 34005KT P6SM FEW025 BKN050
     FM282000 14008KT P6SM FEW025 BKN050=



000
FTPA31 PHFO 271700
TAFHNL
TAF
PHNL 271730Z 2718/2824 35004KT P6SM FEW025 SCT050
     FM272000 13008KT P6SM FEW025 BKN050
     FM280000 03008KT P6SM FEW025 BKN050
     FM281000 34005KT P6SM FEW025 BKN050
     FM282000 14008KT P6SM FEW025 BKN050=



000
FTPA31 PHFO 271700
TAFHNL
TAF
PHNL 271730Z 2718/2824 35004KT P6SM FEW025 SCT050
     FM272000 13008KT P6SM FEW025 BKN050
     FM280000 03008KT P6SM FEW025 BKN050
     FM281000 34005KT P6SM FEW025 BKN050
     FM282000 14008KT P6SM FEW025 BKN050=



000
FTPA31 PHFO 271400 AAA
TAFHNL
TAF AMD
PHNL 271458Z 2715/2818 35004KT P6SM FEW025 BKN050
     FM272000 13008KT P6SM FEW025 BKN050
     FM280000 03008KT P6SM FEW025 BKN050
     FM281000 34005KT P6SM FEW025 BKN050=



000
FTPA31 PHFO 271400 AAA
TAFHNL
TAF AMD
PHNL 271458Z 2715/2818 35004KT P6SM FEW025 BKN050
     FM272000 13008KT P6SM FEW025 BKN050
     FM280000 03008KT P6SM FEW025 BKN050
     FM281000 34005KT P6SM FEW025 BKN050=



    US Dept of Commerce
    National Oceanic and Atmospheric Administration
    National Weather Service
    1325 East West Highway
    Silver Spring, MD 20910
    Page Author: NWS Internet Services Team
Disclaimer
Information Quality
Credits
Glossary
Privacy Policy
Freedom of Information Act (FOIA)
About Us
Career Opportunities